createdAt,value
2022-08-11T00:01:10.836Z,8.95
2022-08-11T00:03:44.907Z,9.70
2022-08-11T00:06:14.817Z,9.63
2022-08-11T00:08:43.446Z,9.55
2022-08-11T00:11:12.677Z,9.15
2022-08-11T00:13:47.423Z,9.70
2022-08-11T00:16:25.725Z,9.13
2022-08-11T00:18:54.978Z,9.43
2022-08-11T00:21:54.570Z,9.35
2022-08-11T00:24:12.375Z,9.32
2022-08-11T00:26:39.684Z,9.13
2022-08-11T00:29:11.635Z,9.35
2022-08-11T00:31:44.287Z,9.05
2022-08-11T00:34:13.607Z,9.00
2022-08-11T00:36:50.724Z,8.77
2022-08-11T00:39:21.608Z,8.60
2022-08-11T00:42:11.392Z,8.50
2022-08-11T00:44:53.968Z,8.63
2022-08-11T00:47:34.223Z,9.90
2022-08-11T00:50:29.508Z,8.07
2022-08-11T00:53:19.055Z,8.50
2022-08-11T00:55:55.387Z,8.02
2022-08-11T00:58:53.964Z,8.40
2022-08-11T01:01:53.079Z,7.88
2022-08-11T01:04:55.759Z,8.00
2022-08-11T01:08:02.582Z,7.70
2022-08-11T01:10:27.327Z,8.23
2022-08-11T01:13:35.143Z,7.60
2022-08-11T01:16:11.653Z,8.23
2022-08-11T01:18:54.760Z,7.35
2022-08-11T01:21:34.242Z,7.25
2022-08-11T01:24:40.283Z,7.53
2022-08-11T01:27:22.292Z,7.05
2022-08-11T01:30:19.970Z,7.25
2022-08-11T01:33:08.592Z,7.05
2022-08-11T01:36:12.434Z,7.25
2022-08-11T01:39:18.322Z,6.15
2022-08-11T01:42:42.280Z,7.20
2022-08-11T01:45:29.737Z,6.35
2022-08-11T01:48:08.935Z,6.70
2022-08-11T01:51:01.773Z,6.03
2022-08-11T01:53:43.588Z,6.38
2022-08-11T01:59:05.712Z,6.60
2022-08-11T02:01:54.755Z,5.88
2022-08-11T02:04:51.580Z,5.85
2022-08-11T02:07:47.957Z,5.97
2022-08-11T02:10:50.419Z,6.43
2022-08-11T02:13:36.685Z,5.82
2022-08-11T02:16:17.055Z,5.75
2022-08-11T02:19:19.560Z,5.80
2022-08-11T02:22:22.772Z,5.55
2022-08-11T02:25:12.775Z,5.13
2022-08-11T02:28:02.259Z,5.32
2022-08-11T02:30:37.423Z,5.70
2022-08-11T02:33:27.399Z,5.68
2022-08-11T02:36:20.992Z,5.55
2022-08-11T02:39:04.071Z,5.32
2022-08-11T02:42:33.475Z,5.45
2022-08-11T02:45:10.688Z,5.90
2022-08-11T02:48:06.679Z,6.32
2022-08-11T02:50:49.552Z,5.80
2022-08-11T02:53:44.352Z,5.10
2022-08-11T02:56:53.375Z,5.65
2022-08-11T02:59:43.502Z,5.70
2022-08-11T03:02:33.529Z,6.22
2022-08-11T03:05:17.638Z,6.80
2022-08-11T03:08:16.003Z,6.85
2022-08-11T03:11:23.955Z,7.22
2022-08-11T03:14:37.912Z,6.47
2022-08-11T03:17:11.380Z,6.43
2022-08-11T03:19:57.514Z,6.03
2022-08-11T03:22:40.835Z,6.57
2022-08-11T03:25:31.972Z,6.80
2022-08-11T03:28:12.742Z,5.87
2022-08-11T03:31:09.455Z,6.35
2022-08-11T03:34:07.112Z,6.10
2022-08-11T03:37:17.187Z,6.60
2022-08-11T03:39:56.932Z,6.07
2022-08-11T03:42:47.693Z,6.15
2022-08-11T03:45:20.866Z,6.28
2022-08-11T03:47:55.529Z,6.15
2022-08-11T03:50:54.981Z,6.40
2022-08-11T03:53:43.769Z,6.43
2022-08-11T03:56:42.070Z,6.38
2022-08-11T03:59:28.904Z,6.50
2022-08-11T04:02:15.973Z,6.50
2022-08-11T04:05:01.697Z,6.43
2022-08-11T04:07:47.547Z,6.43
2022-08-11T04:10:51.337Z,6.85
2022-08-11T04:13:55.858Z,7.43
2022-08-11T04:16:47.319Z,8.50
2022-08-11T04:19:17.673Z,6.55
2022-08-11T04:21:50.882Z,7.53
2022-08-11T04:24:39.999Z,7.72
2022-08-11T04:27:44.812Z,7.70
2022-08-11T04:30:40.545Z,7.30
2022-08-11T04:33:35.315Z,6.95
2022-08-11T04:36:44.924Z,7.43
2022-08-11T04:39:39.907Z,7.50
2022-08-11T04:42:31.892Z,8.52
2022-08-11T04:47:59.749Z,8.82
2022-08-11T04:51:17.029Z,8.98
2022-08-11T04:54:11.934Z,8.88
2022-08-11T04:56:58.957Z,9.38
2022-08-11T05:00:06.621Z,9.88
2022-08-11T05:02:37.117Z,8.80
2022-08-11T05:05:32.778Z,9.38
2022-08-11T05:08:02.805Z,9.25
2022-08-11T05:10:58.201Z,8.65
2022-08-11T05:13:49.262Z,8.90
2022-08-11T05:16:39.721Z,9.68
2022-08-11T05:19:25.288Z,9.55
2022-08-11T05:22:15.748Z,10.50
2022-08-11T05:25:05.106Z,10.35
2022-08-11T05:28:25.042Z,11.57
2022-08-11T05:31:16.857Z,10.63
2022-08-11T05:36:56.418Z,10.90
2022-08-11T05:39:52.849Z,11.88
2022-08-11T05:42:42.227Z,11.10
2022-08-11T05:45:50.704Z,11.50
2022-08-11T05:48:41.332Z,11.98
2022-08-11T05:51:30.549Z,12.02
2022-08-11T05:54:28.579Z,11.95
2022-08-11T05:56:59.767Z,11.45
2022-08-11T05:59:31.067Z,12.45
2022-08-11T06:02:06.038Z,11.93
2022-08-11T06:04:35.267Z,13.88
2022-08-11T06:07:11.187Z,14.25
2022-08-11T06:09:38.378Z,15.15
2022-08-11T06:12:32.370Z,11.05
2022-08-11T06:15:06.696Z,11.85
2022-08-11T06:17:38.471Z,12.05
2022-08-11T06:20:12.470Z,12.65
2022-08-11T06:22:43.207Z,12.63
2022-08-11T06:25:12.432Z,13.07
2022-08-11T06:27:43.338Z,13.32
2022-08-11T06:30:19.501Z,14.68
2022-08-11T06:32:51.680Z,13.93
2022-08-11T06:35:18.935Z,13.43
2022-08-11T06:38:16.308Z,13.60
2022-08-11T06:41:23.647Z,13.80
2022-08-11T06:44:14.333Z,13.98
2022-08-11T06:46:46.817Z,14.23
2022-08-11T06:49:34.728Z,12.90
2022-08-11T06:52:34.079Z,14.23
2022-08-11T06:55:06.646Z,13.10
2022-08-11T06:57:58.152Z,12.77
2022-08-11T07:00:29.293Z,12.55
2022-08-11T07:03:16.926Z,13.23
2022-08-11T07:06:10.700Z,11.90
2022-08-11T07:09:19.104Z,12.25
2022-08-11T07:12:18.229Z,11.45
2022-08-11T07:16:12.870Z,11.38
2022-08-11T07:18:54.895Z,10.13
2022-08-11T07:22:01.567Z,10.85
2022-08-11T07:25:05.466Z,10.30
2022-08-11T07:30:24.449Z,9.98
2022-08-11T07:32:54.999Z,11.02
2022-08-11T07:35:33.327Z,10.70
2022-08-11T07:38:07.291Z,9.27
2022-08-11T07:40:36.578Z,10.30
2022-08-11T07:43:05.167Z,10.45
2022-08-11T07:45:52.173Z,9.35
2022-08-11T07:48:39.529Z,9.05
2022-08-11T07:51:25.629Z,10.07
2022-08-11T07:54:03.129Z,11.48
2022-08-11T07:56:54.503Z,9.20
2022-08-11T08:00:03.530Z,16.58
2022-08-11T08:02:59.541Z,9.77
2022-08-11T08:05:45.284Z,7.90
2022-08-11T08:08:34.671Z,11.68
2022-08-11T08:11:27.150Z,8.65
2022-08-11T08:14:14.111Z,9.70
2022-08-11T08:17:01.007Z,7.75
2022-08-11T08:19:29.521Z,7.90
2022-08-11T08:22:10.942Z,7.82
2022-08-11T08:24:45.764Z,8.00
2022-08-11T08:27:14.423Z,10.27
2022-08-11T08:30:22.651Z,8.20
2022-08-11T08:32:52.058Z,8.45
2022-08-11T08:35:20.080Z,8.38
2022-08-11T08:37:49.735Z,7.88
2022-08-11T08:40:17.767Z,9.00
2022-08-11T08:42:55.423Z,7.90
2022-08-11T08:45:24.128Z,8.38
2022-08-11T08:48:14.886Z,11.98
2022-08-11T08:51:10.159Z,8.60
2022-08-11T08:53:53.249Z,8.23
2022-08-11T08:56:28.460Z,8.70
2022-08-11T08:58:59.322Z,7.80
2022-08-11T09:01:31.380Z,8.60
2022-08-11T09:04:07.109Z,9.13
2022-08-11T09:06:43.185Z,9.02
2022-08-11T09:09:15.883Z,8.77
2022-08-11T09:11:56.085Z,8.20
2022-08-11T09:14:45.756Z,8.23
2022-08-11T09:17:14.252Z,8.85
2022-08-11T09:19:41.896Z,8.75
2022-08-11T09:22:28.548Z,8.85
2022-08-11T09:25:15.354Z,8.65
2022-08-11T09:27:50.529Z,8.25
2022-08-11T09:30:20.298Z,8.88
2022-08-11T09:32:48.190Z,8.32
2022-08-11T09:35:17.922Z,8.48
2022-08-11T09:38:11.925Z,8.93
2022-08-11T09:40:39.985Z,8.88
2022-08-11T09:43:30.070Z,8.48
2022-08-11T09:45:59.865Z,9.15
2022-08-11T09:48:30.037Z,8.00
2022-08-11T09:51:02.305Z,9.23
2022-08-11T09:53:40.886Z,9.10
2022-08-11T09:56:34.624Z,9.65
2022-08-11T09:59:03.989Z,9.00
2022-08-11T10:01:53.719Z,9.23
2022-08-11T10:04:34.955Z,8.73
2022-08-11T10:07:09.878Z,7.88
2022-08-11T10:09:56.500Z,12.32
2022-08-11T10:12:28.043Z,8.43
2022-08-11T10:15:26.769Z,8.65
2022-08-11T10:18:21.565Z,8.70
2022-08-11T10:20:51.440Z,9.60
2022-08-11T10:24:00.973Z,10.38
2022-08-11T10:26:47.673Z,9.35
2022-08-11T10:29:37.463Z,8.48
2022-08-11T10:32:27.810Z,8.43
2022-08-11T10:35:01.564Z,8.38
2022-08-11T10:38:15.623Z,9.10
2022-08-11T10:40:23.701Z,8.80
2022-08-11T10:43:10.668Z,8.30
2022-08-11T10:45:58.775Z,8.60
2022-08-11T10:48:28.864Z,8.18
2022-08-11T10:51:15.286Z,8.43
2022-08-11T10:54:05.353Z,9.07
2022-08-11T10:56:56.772Z,9.20
2022-08-11T11:01:55.103Z,8.35
2022-08-11T11:04:39.505Z,9.32
2022-08-11T11:07:17.171Z,8.65
2022-08-11T11:09:49.603Z,8.05
2022-08-11T11:12:43.004Z,8.73
2022-08-11T11:15:29.915Z,7.88
2022-08-11T11:18:09.606Z,8.75
2022-08-11T11:20:39.314Z,7.25
2022-08-11T11:23:29.196Z,6.63
2022-08-11T11:26:16.929Z,6.40
2022-08-11T11:29:25.446Z,7.00
2022-08-11T11:32:16.702Z,6.93
2022-08-11T11:35:05.765Z,6.72
2022-08-11T11:37:35.866Z,7.45
2022-08-11T11:40:10.773Z,6.63
2022-08-11T11:42:40.873Z,7.38
2022-08-11T11:45:10.369Z,6.93
2022-08-11T11:47:53.779Z,7.47
2022-08-11T11:50:34.924Z,7.05
2022-08-11T11:53:06.071Z,7.25
2022-08-11T11:55:34.331Z,6.63
2022-08-11T11:58:22.276Z,7.38
2022-08-11T12:01:10.551Z,7.05
2022-08-11T12:03:39.723Z,7.28
2022-08-11T12:06:09.429Z,7.50
2022-08-11T12:08:38.129Z,7.00
2022-08-11T12:11:27.679Z,7.32
2022-08-11T12:13:58.319Z,7.57
2022-08-11T12:16:34.895Z,7.38
2022-08-11T12:19:11.931Z,7.47
2022-08-11T12:22:01.087Z,8.30
2022-08-11T12:24:52.910Z,7.90
2022-08-11T12:27:24.009Z,7.88
2022-08-11T12:30:09.471Z,8.02
2022-08-11T12:32:39.225Z,8.25
2022-08-11T12:35:07.978Z,8.30
2022-08-11T12:37:39.764Z,8.98
2022-08-11T12:41:15.110Z,9.77
2022-08-11T12:46:34.549Z,9.52
2022-08-11T12:49:33.370Z,10.70
2022-08-11T12:52:13.916Z,9.43
2022-08-11T12:54:56.603Z,39.05
2022-08-11T12:58:06.351Z,10.02
2022-08-11T13:00:52.794Z,12.20
2022-08-11T13:03:39.762Z,10.50
2022-08-11T13:06:08.954Z,11.43
2022-08-11T13:08:38.495Z,10.93
2022-08-11T13:11:25.789Z,10.85
2022-08-11T13:14:15.258Z,10.38
2022-08-11T13:17:04.385Z,13.27
2022-08-11T13:19:32.500Z,14.25
2022-08-11T13:22:02.452Z,10.95
2022-08-11T13:24:30.304Z,11.23
2022-08-11T13:26:58.928Z,11.73
2022-08-11T13:29:28.331Z,10.55
2022-08-11T13:31:59.856Z,11.38
2022-08-11T13:34:31.419Z,99.63
2022-08-11T13:37:01.760Z,14.63
2022-08-11T13:39:31.178Z,12.32
2022-08-11T13:42:00.725Z,11.45
2022-08-11T13:44:31.267Z,11.05
2022-08-11T13:47:04.069Z,11.00
2022-08-11T13:49:34.992Z,10.68
2022-08-11T13:52:03.805Z,11.00
2022-08-11T13:54:33.038Z,12.35
2022-08-11T13:57:13.571Z,10.50
2022-08-11T14:00:13.205Z,12.13
2022-08-11T14:02:55.679Z,11.27
2022-08-11T14:05:31.502Z,11.75
2022-08-11T14:08:38.933Z,12.05
2022-08-11T14:12:22.703Z,10.93
2022-08-11T14:14:10.784Z,10.57
2022-08-11T14:16:43.095Z,10.68
2022-08-11T14:19:14.559Z,11.48
2022-08-11T14:22:07.314Z,11.20
2022-08-11T14:24:48.300Z,11.50
2022-08-11T14:27:39.078Z,10.75
2022-08-11T14:30:05.902Z,11.25
2022-08-11T14:32:33.536Z,10.60
2022-08-11T14:35:01.397Z,11.48
2022-08-11T14:37:29.340Z,11.18
2022-08-11T14:40:24.375Z,11.98
2022-08-11T14:43:19.226Z,10.00
2022-08-11T14:46:25.337Z,10.35
2022-08-11T14:48:53.209Z,10.85
2022-08-11T14:51:23.009Z,12.20
2022-08-11T14:54:11.499Z,10.82
2022-08-11T14:56:46.140Z,11.80
2022-08-11T14:59:14.193Z,10.68
2022-08-11T15:02:00.254Z,10.73
2022-08-11T15:04:36.076Z,11.13
2022-08-11T15:07:05.253Z,10.60
2022-08-11T15:10:10.140Z,11.57
2022-08-11T15:12:34.337Z,12.38
2022-08-11T15:15:21.909Z,11.48
2022-08-11T15:17:52.365Z,11.27
2022-08-11T15:20:39.578Z,12.00
2022-08-11T15:23:25.771Z,12.40
2022-08-11T15:26:03.401Z,10.75
2022-08-11T15:28:53.660Z,11.43
2022-08-11T15:31:42.183Z,10.98
2022-08-11T15:34:38.565Z,11.18
2022-08-11T15:37:28.223Z,10.77
2022-08-11T15:40:33.229Z,11.10
2022-08-11T15:43:25.841Z,17.27
2022-08-11T15:46:02.607Z,11.02
2022-08-11T15:48:32.915Z,11.20
2022-08-11T15:51:17.674Z,10.80
2022-08-11T15:53:59.487Z,11.95
2022-08-11T15:56:32.102Z,12.05
2022-08-11T15:59:41.535Z,11.07
2022-08-11T16:02:29.477Z,11.45
2022-08-11T16:04:58.712Z,11.07
2022-08-11T16:07:34.321Z,10.35
2022-08-11T16:10:10.981Z,10.80
2022-08-11T16:13:21.729Z,11.43
2022-08-11T16:16:15.022Z,12.07
2022-08-11T16:18:54.833Z,11.40
2022-08-11T16:21:35.076Z,11.13
2022-08-11T16:27:02.758Z,10.98
2022-08-11T16:27:10.385Z,10.77
2022-08-11T16:29:45.070Z,11.05
2022-08-11T16:32:20.701Z,11.00
2022-08-11T16:35:28.324Z,10.60
2022-08-11T16:38:15.116Z,10.60
2022-08-11T16:40:43.878Z,34.67
2022-08-11T16:43:46.165Z,24.67
2022-08-11T16:46:18.826Z,27.83
2022-08-11T16:48:49.604Z,27.70
2022-08-11T16:51:21.151Z,14.88
2022-08-11T16:54:04.779Z,12.35
2022-08-11T16:56:46.422Z,20.77
2022-08-11T16:59:33.022Z,21.30
2022-08-11T17:02:08.054Z,20.20
2022-08-11T17:04:59.830Z,11.07
2022-08-11T17:07:49.218Z,11.68
2022-08-11T17:11:08.042Z,13.18
2022-08-11T17:13:43.014Z,9.95
2022-08-11T17:16:13.060Z,9.88
2022-08-11T17:19:04.393Z,11.63
2022-08-11T17:22:01.154Z,11.68
2022-08-11T17:24:31.733Z,11.95
2022-08-11T17:27:00.931Z,11.55
2022-08-11T17:29:54.524Z,10.50
2022-08-11T17:32:57.113Z,12.27
2022-08-11T17:35:38.797Z,9.68
2022-08-11T17:38:19.033Z,11.25
2022-08-11T17:41:10.081Z,20.30
2022-08-11T17:44:06.643Z,15.93
2022-08-11T17:46:55.338Z,23.50
2022-08-11T17:49:23.805Z,18.90
2022-08-11T17:52:10.877Z,12.93
2022-08-11T17:54:58.266Z,20.67
2022-08-11T17:57:47.623Z,34.63
2022-08-11T18:00:16.062Z,62.85
2022-08-11T18:03:04.278Z,15.52
2022-08-11T18:05:37.234Z,31.05
2022-08-11T18:08:27.523Z,18.60
2022-08-11T18:11:18.465Z,15.93
2022-08-11T18:14:25.796Z,20.85
2022-08-11T18:17:11.892Z,16.85
2022-08-11T18:20:00.698Z,19.27
2022-08-11T18:22:52.072Z,13.75
2022-08-11T18:25:51.414Z,19.23
2022-08-11T18:28:43.503Z,16.08
2022-08-11T18:31:32.559Z,19.55
2022-08-11T18:34:23.462Z,19.10
2022-08-11T18:37:20.567Z,18.95
2022-08-11T18:40:16.845Z,15.73
2022-08-11T18:43:05.651Z,15.02
2022-08-11T18:45:56.498Z,18.90
2022-08-11T18:48:57.481Z,17.40
2022-08-11T18:51:45.094Z,13.45
2022-08-11T18:54:32.559Z,13.95
2022-08-11T18:57:22.964Z,43.58
2022-08-11T19:00:11.160Z,37.65
2022-08-11T19:02:59.025Z,48.58
2022-08-11T19:06:32.509Z,23.85
2022-08-11T19:09:00.164Z,30.58
2022-08-11T19:11:48.226Z,24.10
2022-08-11T19:14:37.962Z,37.50
2022-08-11T19:17:43.823Z,34.20
2022-08-11T19:20:38.367Z,34.70
2022-08-11T19:23:26.925Z,18.95
2022-08-11T19:26:14.086Z,13.68
2022-08-11T19:29:02.947Z,14.20
2022-08-11T19:31:49.118Z,17.23
2022-08-11T19:34:39.393Z,12.75
2022-08-11T19:37:27.487Z,13.45
2022-08-11T19:40:27.037Z,12.70
2022-08-11T19:43:23.860Z,11.63
2022-08-11T19:46:16.166Z,11.25
2022-08-11T19:49:09.789Z,11.18
2022-08-11T19:51:58.432Z,11.27
2022-08-11T19:54:50.211Z,11.40
2022-08-11T19:57:40.195Z,11.52
2022-08-11T20:00:33.861Z,11.57
2022-08-11T20:03:23.561Z,17.10
2022-08-11T20:06:10.250Z,15.13
2022-08-11T20:09:00.504Z,13.48
2022-08-11T20:11:52.176Z,16.33
2022-08-11T20:14:40.006Z,11.07
2022-08-11T20:17:28.720Z,13.60
2022-08-11T20:20:18.277Z,12.00
2022-08-11T20:23:06.132Z,12.18
2022-08-11T20:25:55.775Z,12.57
2022-08-11T20:28:51.603Z,12.77
2022-08-11T20:31:40.275Z,12.52
2022-08-11T20:34:28.289Z,13.25
2022-08-11T20:37:15.680Z,13.27
2022-08-11T20:40:02.770Z,12.25
2022-08-11T20:42:51.331Z,12.13
2022-08-11T20:45:38.239Z,13.13
2022-08-11T20:48:42.104Z,15.35
2022-08-11T20:51:36.701Z,22.10
2022-08-11T20:54:38.187Z,38.30
2022-08-11T20:57:58.857Z,14.45
2022-08-11T21:00:40.971Z,12.73
2022-08-11T21:03:36.122Z,13.15
2022-08-11T21:06:33.545Z,12.70
2022-08-11T21:12:29.609Z,19.13
2022-08-11T21:15:39.107Z,14.57
2022-08-11T21:18:28.601Z,12.48
2022-08-11T21:21:18.348Z,12.95
2022-08-11T21:24:07.078Z,124.85
2022-08-11T21:27:03.410Z,130.82
2022-08-11T21:29:54.835Z,71.10
2022-08-11T21:32:44.101Z,27.27
2022-08-11T21:35:30.874Z,28.35
2022-08-11T21:38:18.678Z,28.15
2022-08-11T21:41:06.845Z,45.55
2022-08-11T21:43:54.248Z,34.75
2022-08-11T21:46:42.724Z,17.77
2022-08-11T21:49:29.924Z,23.58
2022-08-11T21:52:15.852Z,17.80
2022-08-11T21:55:02.516Z,13.57
2022-08-11T21:57:50.478Z,12.98
2022-08-11T22:00:36.343Z,11.77
2022-08-11T22:03:23.657Z,11.10
2022-08-11T22:06:09.976Z,12.02
2022-08-11T22:08:55.648Z,12.50
2022-08-11T22:11:41.501Z,12.05
2022-08-11T22:14:27.229Z,12.85
2022-08-11T22:17:12.890Z,12.23
2022-08-11T22:20:00.596Z,12.30
2022-08-11T22:22:52.888Z,12.75
2022-08-11T22:25:55.077Z,12.88
2022-08-11T22:28:45.633Z,13.20
2022-08-11T22:31:32.452Z,13.18
2022-08-11T22:34:18.798Z,12.23
2022-08-11T22:37:06.872Z,11.93
2022-08-11T22:40:01.792Z,12.55
2022-08-11T22:42:48.616Z,11.82
2022-08-11T22:45:34.676Z,12.35
2022-08-11T22:48:23.685Z,12.07
2022-08-11T22:51:11.013Z,11.60
2022-08-11T22:53:59.336Z,10.93
2022-08-11T22:56:50.478Z,10.88
2022-08-11T22:59:37.825Z,11.40
2022-08-11T23:02:25.343Z,11.05
2022-08-11T23:05:12.160Z,11.30
2022-08-11T23:07:59.730Z,10.40
2022-08-11T23:10:46.082Z,11.32
2022-08-11T23:13:32.237Z,10.85
2022-08-11T23:16:18.653Z,12.10
2022-08-11T23:19:05.603Z,11.20
2022-08-11T23:21:53.149Z,11.75
2022-08-11T23:24:40.636Z,12.10
2022-08-11T23:27:28.405Z,10.60
2022-08-11T23:30:18.759Z,12.00
2022-08-11T23:33:07.347Z,10.43
2022-08-11T23:35:56.776Z,10.55
2022-08-11T23:38:43.792Z,10.85
2022-08-11T23:41:32.477Z,11.43
2022-08-11T23:44:23.490Z,10.88
2022-08-11T23:47:13.141Z,26.80
2022-08-11T23:49:59.297Z,18.33
2022-08-11T23:52:47.293Z,11.52
2022-08-11T23:55:33.361Z,10.40
2022-08-11T23:58:19.463Z,9.70
